メインページ
METAR-TAF:

METAR-TAF

空港 :

Arlington Municipal Airport

アーリントン, ワシントン, アメリカ合衆国

緯度: 48-10N, 経度: 122-10W, 海抜: 42m

現時点の気象観測

当レポートは32分前の17:56(UTC)に作成
南東の風 13kt、最大17ktの突風を伴う
気温 12°C
湿度 94%
気圧 1019 hPa
視程: 16.1km
高度2100ftの曇り
小雨

METAR: KAWO 171756Z AUTO 14013G17KT 10SM -RA OVC021 12/11 A3008 RMK AO2 SLP189 6//// T01170106 10122 20111 50000 PNO $

時間: 10:28 (18:28 UTC)


TAF: 見つかりません

4,000以上の空港の気象観測と天気予報(METAR報とTAF報)

利用可能な観測所は地図上に黄色い丸と赤い丸で示す。

丸の上にカーソルを重ねると観測所名を参照できる。

次にクリックすると気象観測と天気予報を参照できる。

マップの切り替え:黒色「×」印の緑ボタンをクリックして拡大、「-」印の緑ボタンをクリックして縮小、緑色の三角印をクリックして隣りの地図に切り替え


METAR-TAF: